Time;durP1;ratioP1;P1;durP2;ratioP2;P2;SDS_P1;SDS_P2;PMS_P1;PMS_P2;Temp;Humidity;BMP_temperature;BMP_pressure;BME280_temperature;BME280_humidity;BME280_pressure;Samples;Min_cycle;Max_cycle;Signal;HPM_P1;HPM_P2
2023/03/08 00:00:17;;;;;;;17.75;9.07;;;;;;;2.04;91.67;100023.63;5054676;28;20028;-82
2023/03/08 00:02:42;;;;;;;14.18;9.00;;;;;;;1.97;91.84;100003.41;5054341;28;20063;-83
2023/03/08 00:05:08;;;;;;;13.07;9.35;;;;;;;2.07;92.21;100018.50;5055606;28;20029;-82
2023/03/08 00:07:34;;;;;;;15.35;9.90;;;;;;;2.09;92.18;100009.00;5055823;28;20347;-82
2023/03/08 00:09:59;;;;;;;16.63;10.10;;;;;;;2.26;91.72;100018.22;5055940;28;20090;-82
2023/03/08 00:12:24;;;;;;;14.35;8.82;;;;;;;2.29;92.15;100016.56;5037805;28;20032;-82
2023/03/08 00:14:50;;;;;;;16.88;10.20;;;;;;;2.28;91.62;100017.41;5055413;28;20033;-82
2023/03/08 00:17:20;;;;;;;18.73;10.40;;;;;;;2.33;91.90;100021.91;5054058;28;20028;-83
2023/03/08 00:19:45;;;;;;;19.75;11.32;;;;;;;2.34;91.05;100025.41;5055613;28;20040;-83
2023/03/08 00:22:11;;;;;;;17.48;10.57;;;;;;;2.28;91.44;100020.91;5054269;28;20030;-82
2023/03/08 00:24:37;;;;;;;15.80;9.98;;;;;;;2.21;91.40;100013.72;5054228;28;20028;-82
2023/03/08 00:27:02;;;;;;;16.30;10.20;;;;;;;2.17;91.49;100024.88;5037582;28;20127;-82
2023/03/08 00:29:29;;;;;;;16.90;10.90;;;;;;;2.07;92.01;99997.66;5053662;28;20013;-82
2023/03/08 00:31:55;;;;;;;17.73;10.57;;;;;;;2.15;91.85;100029.19;5053606;28;20569;-83
2023/03/08 00:34:20;;;;;;;17.38;10.98;;;;;;;2.16;92.33;100028.34;5054471;28;20026;-82
2023/03/08 00:36:45;;;;;;;15.55;11.27;;;;;;;2.05;91.91;99998.44;5053774;28;20029;-83
2023/03/08 00:39:11;;;;;;;18.17;11.80;;;;;;;2.19;92.05;100015.41;5036997;28;20035;-82
2023/03/08 00:41:37;;;;;;;16.80;10.73;;;;;;;2.16;92.11;100018.78;5053869;28;20031;-82
2023/03/08 00:44:03;;;;;;;16.75;11.55;;;;;;;2.15;92.24;100021.38;5055155;28;20099;-83
2023/03/08 00:46:28;;;;;;;16.55;11.10;;;;;;;2.07;92.43;100004.59;5055144;28;20117;-83
2023/03/08 00:48:54;;;;;;;17.60;11.30;;;;;;;2.18;92.44;100027.53;5055006;28;20475;-82
2023/03/08 00:51:20;;;;;;;17.35;11.32;;;;;;;2.17;92.29;100022.28;5055015;28;20025;-83
2023/03/08 00:53:46;;;;;;;19.85;11.38;;;;;;;2.08;92.11;100015.06;5054889;28;20028;-83
2023/03/08 00:56:12;;;;;;;17.00;10.82;;;;;;;2.00;92.46;100003.50;5054859;28;20439;-83
2023/03/08 00:58:38;;;;;;;16.90;11.65;;;;;;;2.02;92.82;99990.56;5068349;28;20052;-83
2023/03/08 01:01:05;;;;;;;17.55;11.57;;;;;;;2.08;92.69;100012.44;5057115;28;20103;-83
2023/03/08 01:03:31;;;;;;;15.50;10.75;;;;;;;2.05;93.25;100008.84;5074998;28;20061;-83
2023/03/08 01:05:57;;;;;;;18.27;11.93;;;;;;;1.99;93.41;100001.75;5074674;28;20028;-83
2023/03/08 01:08:25;;;;;;;19.35;12.13;;;;;;;1.90;94.10;99989.31;5074561;28;20028;-84
2023/03/08 01:10:56;;;;;;;20.45;12.23;;;;;;;1.96;93.77;99999.91;5056621;28;20496;-84
2023/03/08 01:13:24;;;;;;;22.10;12.13;;;;;;;1.95;93.86;99997.28;5074546;28;20028;-83
2023/03/08 01:15:49;;;;;;;19.75;12.70;;;;;;;1.90;94.16;99968.47;5056452;28;20525;-83
2023/03/08 01:18:15;;;;;;;20.75;12.40;;;;;;;2.14;94.30;99993.50;5056867;28;20106;-83
2023/03/08 01:20:41;;;;;;;18.95;12.10;;;;;;;2.22;94.49;99981.59;5074362;28;20032;-83
2023/03/08 01:23:06;;;;;;;21.73;14.18;;;;;;;2.21;93.62;99985.06;5056326;28;20033;-83
2023/03/08 01:25:32;;;;;;;21.05;13.30;;;;;;;2.10;93.32;99949.94;5039789;28;20032;-83
2023/03/08 01:27:57;;;;;;;22.83;13.85;;;;;;;2.16;93.79;99951.03;5073736;28;20036;-83
2023/03/08 01:30:23;;;;;;;26.00;15.75;;;;;;;2.16;93.72;99966.66;5039782;28;20112;-83
2023/03/08 01:32:48;;;;;;;27.25;15.55;;;;;;;1.97;94.36;99931.38;5023231;28;20027;-83
2023/03/08 01:35:14;;;;;;;27.08;16.90;;;;;;;1.98;94.33;99940.06;5056243;28;20025;-83
2023/03/08 01:37:39;;;;;;;26.80;15.35;;;;;;;1.95;94.89;99939.97;5039585;28;20025;-83
2023/03/08 01:40:06;;;;;;;31.35;16.98;;;;;;;1.87;95.72;99921.47;5056000;28;20060;-83
2023/03/08 01:42:32;;;;;;;31.08;18.15;;;;;;;1.95;95.31;99935.63;5073622;28;20040;-83
2023/03/08 01:45:03;;;;;;;30.05;17.40;;;;;;;1.97;95.72;99936.56;5055655;28;20025;-83
2023/03/08 01:47:31;;;;;;;31.33;16.85;;;;;;;1.91;95.66;99920.75;5055919;28;20397;-83
2023/03/08 01:50:03;;;;;;;28.52;16.75;;;;;;;2.02;95.68;99936.72;5055983;28;20036;-83
2023/03/08 01:52:37;;;;;;;29.10;17.08;;;;;;;2.06;95.68;99925.56;5055945;28;20032;-83
2023/03/08 01:55:06;;;;;;;31.40;17.67;;;;;;;1.94;95.52;99914.75;5073636;28;20138;-84
2023/03/08 01:57:42;;;;;;;31.50;17.75;;;;;;;2.04;95.79;99926.34;5055370;28;20055;-83
2023/03/08 02:00:18;;;;;;;30.63;17.80;;;;;;;2.05;95.97;99922.88;5056033;28;20020;-83
2023/03/08 02:02:53;;;;;;;31.23;16.90;;;;;;;2.18;96.66;99933.69;5055701;28;20051;-83
2023/03/08 02:05:19;;;;;;;31.85;17.23;;;;;;;2.22;95.77;99926.88;5055759;28;20038;-83
2023/03/08 02:07:45;;;;;;;32.17;17.77;;;;;;;2.18;95.44;99898.94;5073330;28;20030;-83
2023/03/08 02:10:11;;;;;;;32.97;18.08;;;;;;;2.32;95.38;99920.22;5055349;28;20428;-83
2023/03/08 02:12:38;;;;;;;29.52;17.23;;;;;;;2.35;95.89;99918.56;5055694;28;20025;-83
2023/03/08 02:15:06;;;;;;;29.52;16.45;;;;;;;2.28;95.80;99895.78;5055452;28;20116;-84
2023/03/08 02:17:36;;;;;;;34.92;19.15;;;;;;;2.44;95.14;99900.59;5073259;28;20029;-83
2023/03/08 02:20:10;;;;;;;33.80;19.27;;;;;;;2.49;94.84;99903.34;5055527;28;20024;-83
2023/03/08 02:22:41;;;;;;;33.40;18.33;;;;;;;2.45;94.39;99894.53;5073478;28;20081;-83
2023/03/08 02:25:12;;;;;;;31.30;18.00;;;;;;;2.51;94.65;99880.78;5073613;28;20108;-83
2023/03/08 02:27:38;;;;;;;33.75;18.63;;;;;;;2.53;94.21;99884.31;5073479;28;20025;-82
2023/03/08 02:30:03;;;;;;;33.55;19.10;;;;;;;2.51;94.30;99876.44;5038959;28;20028;-83
2023/03/08 02:32:29;;;;;;;32.40;18.40;;;;;;;2.51;94.69;99884.25;5073026;28;20029;-84
2023/03/08 02:34:54;;;;;;;31.42;17.52;;;;;;;2.46;94.84;99872.81;5055406;28;20476;-83
2023/03/08 02:37:19;;;;;;;32.80;17.58;;;;;;;2.42;94.67;99865.75;5072908;28;20032;-83
2023/03/08 02:39:45;;;;;;;34.53;19.50;;;;;;;2.47;95.04;99860.66;5073115;28;20021;-83
2023/03/08 02:42:10;;;;;;;31.30;18.58;;;;;;;2.64;94.20;99876.78;5055359;28;20109;-83
2023/03/08 02:44:35;;;;;;;27.25;15.93;;;;;;;2.55;93.90;99845.25;5055152;28;20040;-83
2023/03/08 02:47:01;;;;;;;34.13;18.25;;;;;;;2.63;94.20;99860.25;5055249;28;20074;-84
2023/03/08 02:49:26;;;;;;;32.95;18.58;;;;;;;2.25;93.61;99800.13;5055488;28;20351;-83
2023/03/08 02:51:51;;;;;;;28.80;17.73;;;;;;;2.58;93.47;99863.59;5054884;28;20032;-83
2023/03/08 02:54:19;;;;;;;33.38;18.80;;;;;;;2.53;93.83;99863.47;5038530;28;20032;-83
2023/03/08 02:56:45;;;;;;;31.20;18.15;;;;;;;2.54;94.57;99867.81;5074725;28;20037;-82
2023/03/08 02:59:10;;;;;;;31.58;17.38;;;;;;;2.58;94.37;99864.47;5058273;28;20394;-83
2023/03/08 03:01:39;;;;;;;31.88;18.17;;;;;;;2.45;94.28;99838.91;5076728;28;20063;-83
2023/03/08 03:04:04;;;;;;;30.50;18.25;;;;;;;2.50;94.17;99838.16;5058807;28;20411;-83
2023/03/08 03:06:31;;;;;;;30.48;17.67;;;;;;;2.60;94.46;99856.66;5076764;28;20119;-83
2023/03/08 03:08:56;;;;;;;30.45;17.77;;;;;;;2.39;94.22;99847.41;5076903;28;20035;-82
2023/03/08 03:11:22;;;;;;;30.85;17.27;;;;;;;2.41;94.62;99850.97;5076582;28;20115;-83
2023/03/08 03:13:54;;;;;;;30.17;17.10;;;;;;;2.36;95.23;99830.84;5076846;28;20028;-83
2023/03/08 03:16:19;;;;;;;29.85;17.50;;;;;;;2.33;95.55;99830.75;5058873;28;20024;-83
2023/03/08 03:18:45;;;;;;;30.17;17.38;;;;;;;2.33;95.08;99838.56;5058592;28;20101;-83
2023/03/08 03:21:12;;;;;;;27.80;16.67;;;;;;;2.27;95.29;99828.88;5076936;28;20040;-83
2023/03/08 03:23:38;;;;;;;29.50;16.65;;;;;;;2.35;95.50;99829.94;5076807;28;20077;-83
2023/03/08 03:26:13;;;;;;;29.77;16.77;;;;;;;2.29;95.44;99800.22;5076583;28;20055;-84
2023/03/08 03:28:39;;;;;;;29.63;18.08;;;;;;;2.51;95.88;99824.28;5076146;28;20067;-83
2023/03/08 03:31:10;;;;;;;28.67;17.20;;;;;;;2.59;95.29;99823.63;5058422;28;20059;-84
2023/03/08 03:33:35;;;;;;;28.08;16.80;;;;;;;2.65;95.07;99810.72;5041887;28;20560;-84
2023/03/08 03:36:01;;;;;;;30.20;17.85;;;;;;;2.69;94.40;99797.78;5058483;28;20115;-83
2023/03/08 03:38:27;;;;;;;30.25;16.70;;;;;;;2.56;94.35;99767.03;5042069;28;20494;-83
2023/03/08 03:41:00;;;;;;;29.58;17.38;;;;;;;2.69;94.11;99765.63;5076223;28;20033;-83
2023/03/08 03:43:26;;;;;;;28.85;17.63;;;;;;;2.68;93.55;99767.34;5076191;28;20028;-83
2023/03/08 03:45:56;;;;;;;27.85;16.77;;;;;;;2.65;93.14;99767.25;5058131;28;20037;-83
2023/03/08 03:48:21;;;;;;;26.33;15.43;;;;;;;2.81;93.54;99789.41;5076147;28;20462;-82
2023/03/08 03:50:56;;;;;;;26.58;16.95;;;;;;;2.74;93.65;99774.44;5075822;28;20039;-83
2023/03/08 03:53:22;;;;;;;29.67;17.15;;;;;;;2.78;92.92;99783.22;5075888;28;20024;-83
2023/03/08 03:55:48;;;;;;;28.52;16.42;;;;;;;2.68;93.59;99763.88;5075823;28;20111;-82
2023/03/08 03:58:13;;;;;;;25.92;15.98;;;;;;;2.72;93.44;99760.50;5057804;28;20097;-84
2023/03/08 04:00:39;;;;;;;25.80;16.63;;;;;;;2.85;92.60;99774.72;5041257;28;20029;-83
2023/03/08 04:03:04;;;;;;;30.42;17.10;;;;;;;2.80;92.79;99766.78;5076171;28;20025;-83
2023/03/08 04:05:30;;;;;;;26.45;15.73;;;;;;;2.82;92.37;99777.25;5057863;28;20462;-84
2023/03/08 04:07:55;;;;;;;27.00;16.20;;;;;;;2.73;92.55;99762.25;5075157;28;20090;-83
2023/03/08 04:10:20;;;;;;;25.27;16.02;;;;;;;2.76;92.70;99768.44;5075687;28;20028;-83
2023/03/08 04:12:49;;;;;;;27.77;15.60;;;;;;;2.71;92.27;99756.13;5075585;28;20097;-83
2023/03/08 04:15:15;;;;;;;27.20;16.40;;;;;;;2.72;92.78;99757.88;5057565;28;20037;-84
2023/03/08 04:17:40;;;;;;;25.90;15.75;;;;;;;2.68;92.46;99762.13;5057380;28;20032;-84
2023/03/08 04:20:07;;;;;;;23.40;14.88;;;;;;;2.62;92.64;99742.88;5075597;28;20450;-83
2023/03/08 04:22:32;;;;;;;25.58;15.43;;;;;;;2.66;93.11;99749.91;5075184;28;20056;-83
2023/03/08 04:24:58;;;;;;;24.38;14.85;;;;;;;2.62;92.57;99746.34;5057154;28;20060;-83
2023/03/08 04:27:23;;;;;;;23.33;13.48;;;;;;;2.50;92.86;99725.19;5057553;28;20025;-83
2023/03/08 04:29:49;;;;;;;22.67;14.27;;;;;;;2.39;92.95;99708.38;5057095;28;20033;-83
2023/03/08 04:32:14;;;;;;;22.48;14.38;;;;;;;2.52;93.65;99723.47;5041023;28;20060;-84
2023/03/08 04:34:41;;;;;;;25.25;14.68;;;;;;;2.50;92.96;99725.19;5057248;28;20028;-85
2023/03/08 04:37:09;;;;;;;24.80;14.35;;;;;;;2.51;93.45;99725.19;5075307;28;20020;-83
2023/03/08 04:39:35;;;;;;;22.95;14.43;;;;;;;2.44;93.00;99714.56;5075437;28;20103;-83
2023/03/08 04:42:00;;;;;;;22.50;14.45;;;;;;;2.36;93.42;99703.09;5040645;28;20124;-82
2023/03/08 04:44:25;;;;;;;19.88;13.63;;;;;;;2.32;93.75;99706.47;5075096;28;20507;-83
2023/03/08 04:46:51;;;;;;;21.77;13.15;;;;;;;2.28;94.12;99713.34;5057562;28;20041;-82
2023/03/08 04:49:20;;;;;;;20.67;13.45;;;;;;;2.14;94.11;99699.94;5074967;28;20067;-83
2023/03/08 04:51:45;;;;;;;20.58;12.68;;;;;;;2.10;95.00;99694.59;5041262;28;20466;-83
2023/03/08 04:54:11;;;;;;;20.00;12.80;;;;;;;2.09;95.49;99687.63;5074921;28;20035;-83
2023/03/08 04:56:36;;;;;;;19.65;12.95;;;;;;;1.80;95.42;99646.09;5074821;28;20021;-83
2023/03/08 04:59:02;;;;;;;20.05;11.63;;;;;;;2.04;95.46;99690.13;5056739;28;20543;-83
2023/03/08 05:01:27;;;;;;;20.42;12.63;;;;;;;2.05;95.18;99686.66;5056980;28;20033;-83
2023/03/08 05:03:53;;;;;;;21.65;13.25;;;;;;;1.92;95.58;99658.53;5074466;28;20470;-84
2023/03/08 05:06:21;;;;;;;18.95;11.82;;;;;;;2.07;95.46;99668.47;5040266;28;20029;-83
2023/03/08 05:08:46;;;;;;;21.63;13.00;;;;;;;2.09;95.62;99665.06;5056752;28;20472;-84
2023/03/08 05:11:21;;;;;;;19.15;12.27;;;;;;;2.07;96.15;99655.44;5056922;28;20516;-84
2023/03/08 05:13:53;;;;;;;19.83;12.18;;;;;;;2.00;95.74;99639.66;5056583;28;20028;-84
2023/03/08 05:16:18;;;;;;;19.90;13.02;;;;;;;2.12;95.83;99654.72;5074269;28;20093;-84
2023/03/08 05:18:44;;;;;;;20.30;12.45;;;;;;;2.12;95.81;99646.91;5073396;28;20508;-87
2023/03/08 05:21:13;;;;;;;20.10;11.93;;;;;;;2.04;95.58;99637.13;5074423;28;20167;-83
2023/03/08 05:23:38;;;;;;;22.60;12.60;;;;;;;2.11;95.71;99641.66;5074380;28;20024;-83
2023/03/08 05:26:05;;;;;;;20.65;12.75;;;;;;;2.01;95.40;99611.88;5074478;28;20032;-83
2023/03/08 05:28:32;;;;;;;19.08;11.68;;;;;;;2.08;95.30;99624.22;5074077;28;20025;-83
2023/03/08 05:31:07;;;;;;;21.70;12.57;;;;;;;2.03;95.36;99628.44;5073879;28;20107;-83
2023/03/08 05:33:33;;;;;;;20.40;13.07;;;;;;;2.05;96.10;99621.53;5074155;28;20044;-83
2023/03/08 05:35:59;;;;;;;20.63;12.70;;;;;;;1.99;95.83;99603.16;5073654;28;20038;-84
2023/03/08 05:38:25;;;;;;;23.60;12.45;;;;;;;2.07;95.53;99613.78;5074063;28;20054;-84
2023/03/08 05:40:51;;;;;;;19.92;12.13;;;;;;;2.03;95.79;99598.91;5073914;28;20031;-83
2023/03/08 05:43:17;;;;;;;18.75;11.77;;;;;;;2.01;96.07;99591.03;5073836;28;20025;-82
2023/03/08 05:45:52;;;;;;;18.90;11.23;;;;;;;2.05;95.76;99594.59;5056460;28;20036;-82
2023/03/08 05:48:21;;;;;;;20.45;12.38;;;;;;;2.06;95.86;99583.34;5073684;28;20063;-85
2023/03/08 05:50:46;;;;;;;18.20;11.18;;;;;;;2.00;95.62;99568.44;5056223;28;20078;-82
2023/03/08 05:53:11;;;;;;;16.92;10.00;;;;;;;2.05;95.07;99579.84;5056887;28;20044;-82
2023/03/08 05:55:37;;;;;;;19.13;10.70;;;;;;;1.84;95.38;99546.34;5056536;28;20025;-83
2023/03/08 05:58:02;;;;;;;16.92;9.93;;;;;;;2.02;95.34;99573.69;5055932;28;20083;-84
2023/03/08 06:00:27;;;;;;;15.85;9.50;;;;;;;1.98;94.59;99564.94;5073708;28;20020;-84
2023/03/08 06:02:53;;;;;;;15.40;9.55;;;;;;;1.76;94.79;99527.06;5056345;28;20449;-84
2023/03/08 06:05:19;;;;;;;15.48;8.70;;;;;;;1.91;94.54;99553.47;5055945;28;20030;-86
2023/03/08 06:07:44;;;;;;;14.85;9.30;;;;;;;1.92;94.51;99557.81;5055608;28;20359;-83
2023/03/08 06:10:10;;;;;;;16.85;8.48;;;;;;;1.87;94.48;99550.75;5055664;28;20374;-84
2023/03/08 06:12:35;;;;;;;13.38;8.32;;;;;;;1.71;94.10;99536.44;5055599;28;20051;-85
2023/03/08 06:15:00;;;;;;;13.13;7.95;;;;;;;1.52;94.40;99510.81;5038595;28;20030;-84
2023/03/08 06:17:26;;;;;;;13.52;8.70;;;;;;;1.75;94.55;99553.91;5055340;28;20063;-85
2023/03/08 06:19:51;;;;;;;12.80;7.97;;;;;;;1.76;94.76;99550.50;5055851;28;20214;-84
2023/03/08 06:22:17;;;;;;;12.88;8.15;;;;;;;1.80;94.91;99554.03;5055576;28;20035;-85
2023/03/08 06:24:42;;;;;;;13.35;7.82;;;;;;;1.81;94.58;99553.22;5055094;28;20393;-84
2023/03/08 06:27:07;;;;;;;13.60;7.88;;;;;;;1.77;94.72;99560.06;5055277;28;20035;-85
2023/03/08 06:29:33;;;;;;;15.38;8.63;;;;;;;1.77;94.75;99561.78;5038607;28;20074;-85
2023/03/08 06:31:58;;;;;;;15.20;7.75;;;;;;;1.58;94.62;99527.44;5055393;28;20432;-85
2023/03/08 06:34:23;;;;;;;12.00;7.38;;;;;;;1.66;94.70;99549.34;5022070;28;20529;-85
2023/03/08 06:36:50;;;;;;;11.77;6.80;;;;;;;1.60;94.69;99545.72;5073110;28;20028;-85
2023/03/08 06:39:16;;;;;;;11.45;6.38;;;;;;;1.61;95.43;99542.28;5055464;28;20111;-85
2023/03/08 06:41:42;;;;;;;10.75;6.32;;;;;;;1.49;94.77;99522.88;5055224;28;20071;-85
2023/03/08 06:44:08;;;;;;;10.55;5.70;;;;;;;1.50;94.72;99526.41;5055336;28;20028;-86
2023/03/08 06:46:33;;;;;;;8.23;5.53;;;;;;;1.52;94.51;99539.44;5072708;28;20380;-86
2023/03/08 06:48:59;;;;;;;8.75;5.50;;;;;;;1.33;95.12;99517.25;5072880;28;20028;-86
2023/03/08 06:51:24;;;;;;;8.48;5.72;;;;;;;1.41;94.86;99537.47;5054715;28;20031;-87
2023/03/08 06:53:50;;;;;;;8.95;5.57;;;;;;;1.34;95.42;99530.31;5055690;28;20025;-87
2023/03/08 06:56:16;;;;;;;7.95;5.22;;;;;;;1.26;95.42;99524.03;5054149;28;20047;-87
2023/03/08 06:58:43;;;;;;;7.20;4.55;;;;;;;1.23;95.42;99532.63;5036920;28;20045;-86
2023/03/08 07:01:09;;;;;;;9.02;5.35;;;;;;;1.21;96.02;99536.91;5072422;28;20021;-86
2023/03/08 07:03:35;;;;;;;8.07;5.03;;;;;;;1.14;95.52;99519.38;5073366;28;20020;-86
2023/03/08 07:06:06;;;;;;;7.03;4.45;;;;;;;1.24;96.23;99531.81;5037770;28;20024;-87
2023/03/08 07:08:31;;;;;;;7.97;4.20;;;;;;;1.19;96.08;99529.91;5054454;28;20098;-86
2023/03/08 07:10:58;;;;;;;6.85;4.35;;;;;;;1.20;95.93;99537.78;5073154;28;20449;-87
2023/03/08 07:13:23;;;;;;;7.35;4.22;;;;;;;1.11;96.55;99531.41;5072517;28;20123;-86
2023/03/08 07:15:50;;;;;;;6.82;4.32;;;;;;;1.24;96.75;99538.69;5038838;28;20111;-87
2023/03/08 07:18:17;;;;;;;6.43;3.90;;;;;;;1.24;96.32;99524.00;5054326;28;20043;-86
2023/03/08 07:20:43;;;;;;;8.15;4.40;;;;;;;1.29;96.92;99516.31;5054652;28;20047;-87
2023/03/08 07:23:09;;;;;;;7.97;4.50;;;;;;;1.32;96.39;99515.50;5075504;28;20501;-87
2023/03/08 07:25:37;;;;;;;7.38;4.50;;;;;;;1.33;95.75;99512.03;5039015;28;20028;-87
2023/03/08 07:28:03;;;;;;;7.65;4.32;;;;;;;1.22;96.06;99493.56;5054561;28;20093;-87
2023/03/08 07:30:28;;;;;;;7.95;4.53;;;;;;;1.29;96.17;99497.22;5037747;28;20032;-88
2023/03/08 07:32:53;;;;;;;7.63;4.82;;;;;;;1.05;95.55;99450.63;5021171;28;20025;-88
2023/03/08 07:35:19;;;;;;;8.75;4.72;;;;;;;1.23;96.10;99488.38;5071912;28;20359;-88
2023/03/08 07:37:46;;;;;;;7.32;4.20;;;;;;;1.34;96.41;99506.03;5037440;28;20024;-87
2023/03/08 07:40:16;;;;;;;8.25;4.55;;;;;;;1.24;96.45;99479.78;5053765;28;20025;-87
2023/03/08 07:42:44;;;;;;;8.07;4.68;;;;;;;1.35;96.58;99499.97;5074064;28;20020;-87
2023/03/08 07:45:11;;;;;;;6.38;4.30;;;;;;;1.27;96.15;99489.34;5058847;28;20043;-88
2023/03/08 07:47:37;;;;;;;8.20;4.60;;;;;;;1.10;96.87;99459.41;5075745;28;20482;-87
2023/03/08 07:50:02;;;;;;;7.05;4.50;;;;;;;1.33;96.51;99491.22;5057977;28;20033;-87
2023/03/08 07:52:28;;;;;;;7.75;5.03;;;;;;;1.01;96.38;99434.06;5058887;28;20045;-87
2023/03/08 07:54:54;;;;;;;7.63;5.20;;;;;;;1.29;96.76;99476.41;5041237;28;20029;-88
2023/03/08 07:57:20;;;;;;;7.40;4.93;;;;;;;1.23;96.78;99464.97;5057985;28;20434;-87
2023/03/08 07:59:45;;;;;;;9.23;5.40;;;;;;;1.28;96.85;99472.91;5038867;28;20041;-87
2023/03/08 08:02:12;;;;;;;8.63;5.35;;;;;;;1.20;96.72;99451.00;5054874;28;20123;-88
2023/03/08 08:04:38;;;;;;;7.18;5.05;;;;;;;1.28;96.83;99448.59;5037865;28;20047;-87
2023/03/08 08:07:04;;;;;;;8.43;5.55;;;;;;;1.38;96.48;99467.09;5054815;28;20450;-87
2023/03/08 08:09:29;;;;;;;8.88;6.35;;;;;;;1.32;97.19;99469.53;5037767;28;20024;-87
2023/03/08 08:11:55;;;;;;;8.95;6.10;;;;;;;1.28;96.67;99464.22;5039042;28;20031;-87
2023/03/08 08:14:20;;;;;;;9.10;6.07;;;;;;;1.36;97.20;99475.69;5055286;28;20370;-88
2023/03/08 08:16:50;;;;;;;11.13;6.88;;;;;;;1.25;96.96;99450.31;5037408;28;20123;-87
2023/03/08 08:19:21;;;;;;;9.77;6.65;;;;;;;1.09;97.14;99434.25;5037928;28;20021;-88
2023/03/08 08:21:49;;;;;;;12.20;7.50;;;;;;;1.25;97.33;99459.84;5037947;28;20095;-88
2023/03/08 08:24:15;;;;;;;11.13;6.68;;;;;;;1.27;97.61;99463.34;5054341;28;20043;-88
2023/03/08 08:26:41;;;;;;;10.05;6.00;;;;;;;0.84;97.05;99388.53;5055093;28;20029;-87
2023/03/08 08:29:12;;;;;;;8.98;6.13;;;;;;;0.92;97.05;99413.88;5053683;28;20455;-88
2023/03/08 08:31:40;;;;;;;7.30;5.13;;;;;;;1.00;97.70;99414.09;5053529;28;20032;-88
2023/03/08 08:34:13;;;;;;;8.35;5.47;;;;;;;0.71;97.54;99370.00;5054827;28;20033;-88
2023/03/08 08:36:39;;;;;;;7.47;5.40;;;;;;;0.66;97.58;99353.41;5037480;28;20119;-88
2023/03/08 08:39:06;;;;;;;9.40;6.05;;;;;;;0.79;97.86;99361.53;5053870;28;20115;-88
2023/03/08 08:44:32;;;;;;;;;;;;;;;;;;;;;
2023/03/08 08:47:03;;;;;;;7.13;4.97;;;;;;;1.00;97.15;99375.09;5053595;28;20152;-88
2023/03/08 08:49:33;;;;;;;6.40;4.68;;;;;;;1.04;97.45;99386.44;5036852;28;20032;-88
2023/03/08 08:51:59;;;;;;;7.05;4.72;;;;;;;0.80;97.51;99350.28;5043435;28;20036;-88
2023/03/08 08:54:41;;;;;;;7.70;5.32;;;;;;;1.03;97.03;99401.19;5052840;28;20025;-89
2023/03/08 08:57:07;;;;;;;8.07;5.55;;;;;;;1.02;96.94;99390.72;5054969;28;20021;-90
2023/03/08 08:59:44;;;;;;;8.73;5.88;;;;;;;0.83;97.21;99356.44;5071363;28;20048;-89
2023/03/08 09:02:24;;;;;;;;;;;;;;;;;;;;;
2023/03/08 09:04:53;;;;;;;8.25;5.28;;;;;;;1.05;97.24;99364.78;5074874;28;20306;-89
2023/03/08 09:07:32;;;;;;;7.78;5.25;;;;;;;1.20;95.77;99384.28;5058007;28;20093;-88
2023/03/08 09:10:01;;;;;;;6.95;4.80;;;;;;;1.29;96.00;99403.56;5053170;28;20032;-88
2023/03/08 09:12:42;;;;;;;;;;;;;;;;;;;;;
2023/03/08 09:15:11;;;;;;;6.53;4.22;;;;;;;1.16;95.57;99394.56;5074451;28;20024;-89
2023/03/08 09:17:39;;;;;;;6.47;4.53;;;;;;;1.16;95.32;99385.03;5059217;28;20097;-90
2023/03/08 09:20:11;;;;;;;8.75;3.92;;;;;;;1.00;95.35;99343.88;5039438;28;20043;-89
2023/03/08 09:22:42;;;;;;;5.47;3.80;;;;;;;1.44;95.49;99399.56;5055649;28;20025;-91
2023/03/08 09:25:14;;;;;;;6.03;3.85;;;;;;;0.93;95.59;99303.81;5042042;28;20424;-90
2023/03/08 09:27:58;;;;;;;5.93;3.78;;;;;;;1.00;95.31;99305.75;5058626;28;20036;-89
2023/03/08 09:30:28;;;;;;;6.57;4.00;;;;;;;1.47;95.30;99376.22;5057402;28;20064;-90
2023/03/08 09:33:01;;;;;;;7.22;4.18;;;;;;;1.33;95.14;99329.91;5073951;28;20028;-91
2023/03/08 09:36:02;;;;;;;5.93;4.18;;;;;;;1.40;95.02;99334.41;5056788;28;20040;-91
2023/03/08 09:38:41;;;;;;;6.55;4.10;;;;;;;1.64;94.65;99365.34;5042971;28;20444;-91
2023/03/08 09:41:29;;;;;;;7.13;4.32;;;;;;;1.68;94.47;99360.22;5024480;28;20064;-91
2023/03/08 09:44:52;;;;;;;;;;;;;;;;;;;;;
2023/03/08 09:47:42;;;;;;;7.40;5.13;;;;;;;1.87;94.01;99347.59;5066342;28;20028;-93
2023/03/08 09:50:34;;;;;;;8.02;5.25;;;;;;;1.97;94.23;99352.13;5057508;28;20024;-92
2023/03/08 09:53:48;;;;;;;;;;;;;;;;;;;;;
2023/03/08 09:56:52;;;;;;;11.30;6.28;;;;;;;2.17;93.19;99340.41;5059343;28;20127;-93
2023/03/08 10:00:13;;;;;;;10.25;7.10;;;;;;;2.13;93.51;99335.97;5026343;28;20193;-93
2023/03/08 10:03:11;;;;;;;;;;;;;;;;;;;;;
2023/03/08 10:06:25;;;;;;;;;;;;;;;;;;;;;
2023/03/08 10:09:53;;;;;;;;;;;;;;;;;;;;;
2023/03/08 10:13:17;;;;;;;;;;;;;;;;;;;;;
2023/03/08 10:17:00;;;;;;;;;;;;;;;;;;;;;
2023/03/08 10:31:28;;;;;;;;;;;;;;;;;;;;;
2023/03/08 10:38:14;;;;;;;;;;;;;;;;;;;;;
2023/03/08 10:41:13;;;;;;;;;;;;;;;;;;;;;
2023/03/08 10:44:18;;;;;;;15.35;10.52;;;;;;;2.99;86.65;99283.63;4985540;28;20057;-93
2023/03/08 10:50:49;;;;;;;;;;;;;;;;;;;;;
2023/03/08 11:00:19;;;;;;;15.18;10.00;;;;;;;3.32;86.63;99303.28;4987988;28;20049;-90
2023/03/08 11:02:47;;;;;;;16.55;11.02;;;;;;;3.13;86.94;99276.06;4974982;28;20066;-89
2023/03/08 11:05:25;;;;;;;14.20;9.70;;;;;;;3.30;85.41;99310.25;5027027;28;20040;-89
2023/03/08 11:07:54;;;;;;;14.80;9.90;;;;;;;3.26;86.12;99305.81;5035052;28;20381;-89
2023/03/08 11:10:35;;;;;;;13.77;10.13;;;;;;;3.20;86.53;99329.19;5034631;28;20044;-89
2023/03/08 11:16:27;;;;;;;13.70;9.73;;;;;;;3.16;86.90;99310.00;5052419;28;20056;-87
2023/03/08 11:22:24;;;;;;;12.02;8.80;;;;;;;3.03;86.43;99317.63;5057604;28;20098;-88
2023/03/08 11:25:08;;;;;;;11.40;8.27;;;;;;;2.93;87.61;99307.03;5038284;28;20048;-88
2023/03/08 11:27:48;;;;;;;11.45;8.20;;;;;;;2.88;87.55;99294.78;5038181;28;20032;-88
2023/03/08 11:30:28;;;;;;;12.50;8.93;;;;;;;2.91;87.86;99295.72;5056191;28;20087;-87
2023/03/08 11:33:09;;;;;;;11.85;8.55;;;;;;;2.95;87.65;99300.09;5055800;28;20017;-88
2023/03/08 11:35:58;;;;;;;11.18;8.00;;;;;;;2.95;86.92;99300.09;5038289;28;20051;-87
2023/03/08 11:38:26;;;;;;;10.30;7.82;;;;;;;2.92;88.19;99296.59;5038074;28;20064;-87
2023/03/08 11:41:18;;;;;;;10.40;7.65;;;;;;;2.93;87.10;99307.03;5037842;28;20028;-87
2023/03/08 11:44:07;;;;;;;9.98;7.50;;;;;;;2.74;87.50;99268.44;5055998;28;20036;-88
2023/03/08 11:46:42;;;;;;;10.35;7.82;;;;;;;2.92;87.27;99283.53;5055582;28;20031;-87
2023/03/08 11:49:10;;;;;;;10.45;7.53;;;;;;;2.90;88.14;99262.63;5055416;28;20139;-86
2023/03/08 11:51:42;;;;;;;9.57;6.47;;;;;;;2.79;86.96;99259.00;5055720;28;20025;-86
2023/03/08 11:54:10;;;;;;;9.57;6.50;;;;;;;2.79;88.68;99269.41;5055636;28;20028;-86
2023/03/08 11:56:41;;;;;;;10.07;6.82;;;;;;;2.82;88.27;99268.56;5055319;28;20025;-86
2023/03/08 11:59:16;;;;;;;9.07;6.43;;;;;;;2.82;88.58;99263.34;5055260;28;20029;-85
2023/03/08 12:01:50;;;;;;;9.57;6.40;;;;;;;2.79;88.50;99250.28;5036879;28;20056;-85
2023/03/08 12:05:08;;;;;;;8.90;6.95;;;;;;;2.89;88.31;99254.78;5037242;28;20029;-85
2023/03/08 12:07:56;;;;;;;8.40;6.10;;;;;;;2.96;87.78;99259.25;4977164;28;20048;-85
2023/03/08 12:10:27;;;;;;;10.00;5.97;;;;;;;2.92;87.38;99253.13;5055307;28;20452;-85
2023/03/08 12:13:10;;;;;;;7.57;5.82;;;;;;;2.83;87.75;99232.09;5055605;28;20033;-84
2023/03/08 12:15:52;;;;;;;9.32;5.07;;;;;;;2.79;88.12;99216.38;5055781;28;20025;-84
2023/03/08 12:18:54;;;;;;;7.72;5.70;;;;;;;3.04;87.64;99239.38;5055713;28;20037;-84
2023/03/08 12:21:20;;;;;;;7.40;5.63;;;;;;;3.04;87.13;99252.44;5054952;28;20431;-85
2023/03/08 12:24:12;;;;;;;6.68;5.13;;;;;;;2.91;87.20;99256.59;5055020;28;20260;-85
2023/03/08 12:26:47;;;;;;;6.77;5.23;;;;;;;2.76;87.33;99244.16;5054866;28;20067;-86
2023/03/08 12:29:24;;;;;;;7.95;5.25;;;;;;;2.76;87.87;99257.19;5036734;28;20107;-87
2023/03/08 12:31:50;;;;;;;8.15;5.57;;;;;;;2.67;87.95;99249.22;5055147;28;20036;-86
2023/03/08 12:34:36;;;;;;;8.68;5.28;;;;;;;2.73;88.74;99266.69;5037166;28;20035;-87
2023/03/08 12:37:02;;;;;;;6.38;4.85;;;;;;;2.64;88.35;99262.19;5037047;28;20032;-87
2023/03/08 12:39:32;;;;;;;6.75;5.00;;;;;;;2.71;89.10;99266.69;5037314;28;20029;-86
2023/03/08 12:42:10;;;;;;;7.47;5.53;;;;;;;2.70;88.84;99272.75;5037048;28;20083;-87